sensor_id;sensor_type;location;lat;lon;timestamp;temperature;humidity
19039;DHT22;9652;49.014;12.052;2024-02-26T00:01:31;6.40;71.40
19039;DHT22;9652;49.014;12.052;2024-02-26T00:03:59;6.40;71.50
19039;DHT22;9652;49.014;12.052;2024-02-26T00:06:28;6.40;71.50
19039;DHT22;9652;49.014;12.052;2024-02-26T00:08:55;6.40;71.50
19039;DHT22;9652;49.014;12.052;2024-02-26T00:11:22;6.30;71.40
19039;DHT22;9652;49.014;12.052;2024-02-26T00:13:49;6.30;71.50
19039;DHT22;9652;49.014;12.052;2024-02-26T00:16:16;6.30;71.60
19039;DHT22;9652;49.014;12.052;2024-02-26T00:18:45;6.30;71.60
19039;DHT22;9652;49.014;12.052;2024-02-26T00:21:12;6.20;71.80
19039;DHT22;9652;49.014;12.052;2024-02-26T00:23:39;6.20;71.70
19039;DHT22;9652;49.014;12.052;2024-02-26T00:26:06;6.20;71.80
19039;DHT22;9652;49.014;12.052;2024-02-26T00:28:33;6.20;71.90
19039;DHT22;9652;49.014;12.052;2024-02-26T00:31:00;6.20;71.90
19039;DHT22;9652;49.014;12.052;2024-02-26T00:33:28;6.20;71.90
19039;DHT22;9652;49.014;12.052;2024-02-26T00:35:56;6.20;71.90
19039;DHT22;9652;49.014;12.052;2024-02-26T00:38:23;6.20;71.90
19039;DHT22;9652;49.014;12.052;2024-02-26T00:40:50;6.20;71.80
19039;DHT22;9652;49.014;12.052;2024-02-26T00:43:18;6.10;71.70
19039;DHT22;9652;49.014;12.052;2024-02-26T00:45:45;6.10;71.60
19039;DHT22;9652;49.014;12.052;2024-02-26T00:48:12;6.10;71.60
19039;DHT22;9652;49.014;12.052;2024-02-26T00:50:39;6.00;71.50
19039;DHT22;9652;49.014;12.052;2024-02-26T00:53:08;6.00;71.50
19039;DHT22;9652;49.014;12.052;2024-02-26T00:55:35;6.00;71.60
19039;DHT22;9652;49.014;12.052;2024-02-26T00:58:02;6.10;71.60
19039;DHT22;9652;49.014;12.052;2024-02-26T01:00:29;6.00;71.50
19039;DHT22;9652;49.014;12.052;2024-02-26T01:02:57;5.90;71.50
19039;DHT22;9652;49.014;12.052;2024-02-26T01:05:25;5.90;71.40
19039;DHT22;9652;49.014;12.052;2024-02-26T01:07:52;5.90;71.40
19039;DHT22;9652;49.014;12.052;2024-02-26T01:10:21;5.90;71.60
19039;DHT22;9652;49.014;12.052;2024-02-26T01:12:48;5.90;71.70
19039;DHT22;9652;49.014;12.052;2024-02-26T01:15:15;5.80;71.60
19039;DHT22;9652;49.014;12.052;2024-02-26T01:17:44;5.80;71.60
19039;DHT22;9652;49.014;12.052;2024-02-26T01:20:11;5.80;71.70
19039;DHT22;9652;49.014;12.052;2024-02-26T01:22:38;5.80;71.70
19039;DHT22;9652;49.014;12.052;2024-02-26T01:25:06;5.80;71.70
19039;DHT22;9652;49.014;12.052;2024-02-26T01:27:36;5.70;71.70
19039;DHT22;9652;49.014;12.052;2024-02-26T01:30:04;5.70;71.80
19039;DHT22;9652;49.014;12.052;2024-02-26T01:32:32;5.70;71.80
19039;DHT22;9652;49.014;12.052;2024-02-26T01:34:59;5.70;71.90
19039;DHT22;9652;49.014;12.052;2024-02-26T01:37:26;5.60;71.80
19039;DHT22;9652;49.014;12.052;2024-02-26T01:39:52;5.60;71.80
19039;DHT22;9652;49.014;12.052;2024-02-26T01:42:19;5.70;71.90
19039;DHT22;9652;49.014;12.052;2024-02-26T01:44:48;5.60;71.90
19039;DHT22;9652;49.014;12.052;2024-02-26T01:47:15;5.60;72.00
19039;DHT22;9652;49.014;12.052;2024-02-26T01:49:42;5.60;71.90
19039;DHT22;9652;49.014;12.052;2024-02-26T01:52:10;5.60;72.00
19039;DHT22;9652;49.014;12.052;2024-02-26T01:54:38;5.60;72.10
19039;DHT22;9652;49.014;12.052;2024-02-26T01:57:08;5.50;72.00
19039;DHT22;9652;49.014;12.052;2024-02-26T01:59:35;5.50;72.00
19039;DHT22;9652;49.014;12.052;2024-02-26T02:02:06;5.50;72.00
19039;DHT22;9652;49.014;12.052;2024-02-26T02:04:37;5.50;72.00
19039;DHT22;9652;49.014;12.052;2024-02-26T02:07:04;5.40;71.90
19039;DHT22;9652;49.014;12.052;2024-02-26T02:09:32;5.50;72.00
19039;DHT22;9652;49.014;12.052;2024-02-26T02:12:00;5.40;71.90
19039;DHT22;9652;49.014;12.052;2024-02-26T02:14:28;5.40;72.00
19039;DHT22;9652;49.014;12.052;2024-02-26T02:16:55;5.40;72.10
19039;DHT22;9652;49.014;12.052;2024-02-26T02:19:23;5.40;72.20
19039;DHT22;9652;49.014;12.052;2024-02-26T02:21:52;5.40;72.30
19039;DHT22;9652;49.014;12.052;2024-02-26T02:24:19;5.40;72.40
19039;DHT22;9652;49.014;12.052;2024-02-26T02:26:46;5.40;73.20
19039;DHT22;9652;49.014;12.052;2024-02-26T02:29:14;5.40;72.40
19039;DHT22;9652;49.014;12.052;2024-02-26T02:31:42;5.40;72.50
19039;DHT22;9652;49.014;12.052;2024-02-26T02:34:09;5.40;72.50
19039;DHT22;9652;49.014;12.052;2024-02-26T02:36:48;5.30;73.20
19039;DHT22;9652;49.014;12.052;2024-02-26T02:39:19;5.40;72.80
19039;DHT22;9652;49.014;12.052;2024-02-26T02:41:46;5.30;72.50
19039;DHT22;9652;49.014;12.052;2024-02-26T02:44:13;5.40;72.60
19039;DHT22;9652;49.014;12.052;2024-02-26T02:46:40;5.40;72.60
19039;DHT22;9652;49.014;12.052;2024-02-26T02:49:08;5.30;72.50
19039;DHT22;9652;49.014;12.052;2024-02-26T02:51:36;5.30;72.50
19039;DHT22;9652;49.014;12.052;2024-02-26T02:54:03;5.30;72.50
19039;DHT22;9652;49.014;12.052;2024-02-26T02:56:32;5.30;72.50
19039;DHT22;9652;49.014;12.052;2024-02-26T02:58:59;5.30;72.60
19039;DHT22;9652;49.014;12.052;2024-02-26T03:01:26;5.30;72.60
19039;DHT22;9652;49.014;12.052;2024-02-26T03:03:53;5.30;72.60
19039;DHT22;9652;49.014;12.052;2024-02-26T03:06:20;5.30;72.50
19039;DHT22;9652;49.014;12.052;2024-02-26T03:08:48;5.40;72.60
19039;DHT22;9652;49.014;12.052;2024-02-26T03:11:15;5.30;72.50
19039;DHT22;9652;49.014;12.052;2024-02-26T03:13:44;5.30;72.50
19039;DHT22;9652;49.014;12.052;2024-02-26T03:16:11;5.30;72.60
19039;DHT22;9652;49.014;12.052;2024-02-26T03:18:39;5.30;72.60
19039;DHT22;9652;49.014;12.052;2024-02-26T03:21:06;5.30;72.70
19039;DHT22;9652;49.014;12.052;2024-02-26T03:23:33;5.30;72.70
19039;DHT22;9652;49.014;12.052;2024-02-26T03:26:02;5.30;72.70
19039;DHT22;9652;49.014;12.052;2024-02-26T03:28:30;5.30;72.80
19039;DHT22;9652;49.014;12.052;2024-02-26T03:31:00;5.60;73.00
19039;DHT22;9652;49.014;12.052;2024-02-26T03:33:27;5.30;72.80
19039;DHT22;9652;49.014;12.052;2024-02-26T03:35:54;5.30;72.70
19039;DHT22;9652;49.014;12.052;2024-02-26T03:38:22;5.30;72.70
19039;DHT22;9652;49.014;12.052;2024-02-26T03:40:49;5.30;72.60
19039;DHT22;9652;49.014;12.052;2024-02-26T03:43:16;5.30;72.50
19039;DHT22;9652;49.014;12.052;2024-02-26T03:45:44;5.30;72.50
19039;DHT22;9652;49.014;12.052;2024-02-26T03:48:12;5.30;72.50
19039;DHT22;9652;49.014;12.052;2024-02-26T03:50:39;5.30;72.50
19039;DHT22;9652;49.014;12.052;2024-02-26T03:53:07;5.30;72.40
19039;DHT22;9652;49.014;12.052;2024-02-26T03:55:34;5.30;72.40
19039;DHT22;9652;49.014;12.052;2024-02-26T03:58:01;5.30;72.40
19039;DHT22;9652;49.014;12.052;2024-02-26T04:00:29;5.20;72.30
19039;DHT22;9652;49.014;12.052;2024-02-26T04:02:56;5.20;72.30
19039;DHT22;9652;49.014;12.052;2024-02-26T04:05:24;5.20;72.30
19039;DHT22;9652;49.014;12.052;2024-02-26T04:07:52;5.20;72.40
19039;DHT22;9652;49.014;12.052;2024-02-26T04:10:19;5.20;72.30
19039;DHT22;9652;49.014;12.052;2024-02-26T04:12:46;5.20;72.30
19039;DHT22;9652;49.014;12.052;2024-02-26T04:15:13;5.20;72.30
19039;DHT22;9652;49.014;12.052;2024-02-26T04:17:40;5.20;72.30
19039;DHT22;9652;49.014;12.052;2024-02-26T04:20:12;5.10;72.30
19039;DHT22;9652;49.014;12.052;2024-02-26T04:22:41;5.10;72.30
19039;DHT22;9652;49.014;12.052;2024-02-26T04:25:09;5.10;72.30
19039;DHT22;9652;49.014;12.052;2024-02-26T04:27:36;5.10;72.40
19039;DHT22;9652;49.014;12.052;2024-02-26T04:30:04;5.00;72.50
19039;DHT22;9652;49.014;12.052;2024-02-26T04:32:32;5.10;72.80
19039;DHT22;9652;49.014;12.052;2024-02-26T04:35:00;5.10;72.90
19039;DHT22;9652;49.014;12.052;2024-02-26T04:37:27;5.00;73.00
19039;DHT22;9652;49.014;12.052;2024-02-26T04:39:59;5.10;73.80
19039;DHT22;9652;49.014;12.052;2024-02-26T04:42:26;5.10;73.00
19039;DHT22;9652;49.014;12.052;2024-02-26T04:44:54;5.00;72.80
19039;DHT22;9652;49.014;12.052;2024-02-26T04:47:22;5.10;72.80
19039;DHT22;9652;49.014;12.052;2024-02-26T04:49:49;5.00;72.50
19039;DHT22;9652;49.014;12.052;2024-02-26T04:52:18;5.00;72.50
19039;DHT22;9652;49.014;12.052;2024-02-26T04:54:45;5.00;72.50
19039;DHT22;9652;49.014;12.052;2024-02-26T04:57:13;5.00;72.50
19039;DHT22;9652;49.014;12.052;2024-02-26T04:59:40;5.00;72.50
19039;DHT22;9652;49.014;12.052;2024-02-26T05:02:08;5.00;72.50
19039;DHT22;9652;49.014;12.052;2024-02-26T05:04:35;5.00;72.70
19039;DHT22;9652;49.014;12.052;2024-02-26T05:07:02;5.00;72.70
19039;DHT22;9652;49.014;12.052;2024-02-26T05:09:30;5.00;72.80
19039;DHT22;9652;49.014;12.052;2024-02-26T05:11:57;5.00;73.00
19039;DHT22;9652;49.014;12.052;2024-02-26T05:14:25;5.00;73.20
19039;DHT22;9652;49.014;12.052;2024-02-26T05:16:52;5.00;73.30
19039;DHT22;9652;49.014;12.052;2024-02-26T05:19:20;5.00;73.50
19039;DHT22;9652;49.014;12.052;2024-02-26T05:21:47;5.00;73.50
19039;DHT22;9652;49.014;12.052;2024-02-26T05:24:15;5.00;73.50
19039;DHT22;9652;49.014;12.052;2024-02-26T05:26:43;5.10;73.70
19039;DHT22;9652;49.014;12.052;2024-02-26T05:29:10;5.10;73.60
19039;DHT22;9652;49.014;12.052;2024-02-26T05:31:38;5.10;73.50
19039;DHT22;9652;49.014;12.052;2024-02-26T05:34:06;5.10;73.40
19039;DHT22;9652;49.014;12.052;2024-02-26T05:36:33;5.10;73.30
19039;DHT22;9652;49.014;12.052;2024-02-26T05:39:00;5.10;73.10
19039;DHT22;9652;49.014;12.052;2024-02-26T05:41:29;5.10;73.00
19039;DHT22;9652;49.014;12.052;2024-02-26T05:43:56;5.10;73.00
19039;DHT22;9652;49.014;12.052;2024-02-26T05:46:23;5.10;72.90
19039;DHT22;9652;49.014;12.052;2024-02-26T05:48:52;5.10;72.80
19039;DHT22;9652;49.014;12.052;2024-02-26T05:51:20;5.00;72.70
19039;DHT22;9652;49.014;12.052;2024-02-26T05:53:47;5.00;72.70
19039;DHT22;9652;49.014;12.052;2024-02-26T05:56:19;5.00;72.70
19039;DHT22;9652;49.014;12.052;2024-02-26T05:58:47;5.00;72.60
19039;DHT22;9652;49.014;12.052;2024-02-26T06:01:15;5.00;72.50
19039;DHT22;9652;49.014;12.052;2024-02-26T06:03:43;4.90;72.40
19039;DHT22;9652;49.014;12.052;2024-02-26T06:06:12;4.90;72.40
19039;DHT22;9652;49.014;12.052;2024-02-26T06:08:40;4.90;72.30
19039;DHT22;9652;49.014;12.052;2024-02-26T06:11:07;4.90;72.30
19039;DHT22;9652;49.014;12.052;2024-02-26T06:13:35;4.90;72.30
19039;DHT22;9652;49.014;12.052;2024-02-26T06:16:02;4.80;72.30
19039;DHT22;9652;49.014;12.052;2024-02-26T06:18:30;4.80;72.40
19039;DHT22;9652;49.014;12.052;2024-02-26T06:20:57;4.80;73.30
19039;DHT22;9652;49.014;12.052;2024-02-26T06:23:26;4.80;72.60
19039;DHT22;9652;49.014;12.052;2024-02-26T06:25:53;4.80;72.80
19039;DHT22;9652;49.014;12.052;2024-02-26T06:28:20;4.80;72.90
19039;DHT22;9652;49.014;12.052;2024-02-26T06:30:47;4.80;73.00
19039;DHT22;9652;49.014;12.052;2024-02-26T06:33:16;4.80;73.10
19039;DHT22;9652;49.014;12.052;2024-02-26T06:35:43;4.90;73.30
19039;DHT22;9652;49.014;12.052;2024-02-26T06:38:10;4.80;73.20
19039;DHT22;9652;49.014;12.052;2024-02-26T06:40:40;4.80;73.30
19039;DHT22;9652;49.014;12.052;2024-02-26T06:43:07;4.80;73.50
19039;DHT22;9652;49.014;12.052;2024-02-26T06:45:34;4.90;73.50
19039;DHT22;9652;49.014;12.052;2024-02-26T06:48:02;4.90;73.70
19039;DHT22;9652;49.014;12.052;2024-02-26T06:50:29;4.90;73.70
19039;DHT22;9652;49.014;12.052;2024-02-26T06:52:56;4.90;73.80
19039;DHT22;9652;49.014;12.052;2024-02-26T06:55:23;5.00;73.90
19039;DHT22;9652;49.014;12.052;2024-02-26T06:57:51;5.00;74.00
19039;DHT22;9652;49.014;12.052;2024-02-26T07:00:19;5.00;74.20
19039;DHT22;9652;49.014;12.052;2024-02-26T07:02:46;5.10;74.20
19039;DHT22;9652;49.014;12.052;2024-02-26T07:05:13;5.10;74.40
19039;DHT22;9652;49.014;12.052;2024-02-26T07:07:40;5.20;74.40
19039;DHT22;9652;49.014;12.052;2024-02-26T07:10:08;5.20;74.40
19039;DHT22;9652;49.014;12.052;2024-02-26T07:12:38;5.20;74.50
19039;DHT22;9652;49.014;12.052;2024-02-26T07:15:07;5.30;74.80
19039;DHT22;9652;49.014;12.052;2024-02-26T07:17:35;5.40;75.00
19039;DHT22;9652;49.014;12.052;2024-02-26T07:20:03;5.40;75.10
19039;DHT22;9652;49.014;12.052;2024-02-26T07:22:31;5.50;75.30
19039;DHT22;9652;49.014;12.052;2024-02-26T07:24:58;5.60;76.30
19039;DHT22;9652;49.014;12.052;2024-02-26T07:27:25;5.70;75.50
19039;DHT22;9652;49.014;12.052;2024-02-26T07:29:52;5.80;75.50
19039;DHT22;9652;49.014;12.052;2024-02-26T07:32:21;5.90;75.30
19039;DHT22;9652;49.014;12.052;2024-02-26T07:34:48;6.00;75.30
19039;DHT22;9652;49.014;12.052;2024-02-26T07:37:15;6.10;75.20
19039;DHT22;9652;49.014;12.052;2024-02-26T07:39:42;6.20;75.10
19039;DHT22;9652;49.014;12.052;2024-02-26T07:42:10;6.20;75.10
19039;DHT22;9652;49.014;12.052;2024-02-26T07:44:37;6.30;75.10
19039;DHT22;9652;49.014;12.052;2024-02-26T07:47:04;6.40;75.10
19039;DHT22;9652;49.014;12.052;2024-02-26T07:49:32;6.50;75.20
19039;DHT22;9652;49.014;12.052;2024-02-26T07:52:00;6.60;75.20
19039;DHT22;9652;49.014;12.052;2024-02-26T07:54:27;6.70;75.40
19039;DHT22;9652;49.014;12.052;2024-02-26T07:56:54;6.80;75.50
19039;DHT22;9652;49.014;12.052;2024-02-26T07:59:21;6.80;75.80
19039;DHT22;9652;49.014;12.052;2024-02-26T08:01:50;7.00;76.10
19039;DHT22;9652;49.014;12.052;2024-02-26T08:04:18;7.10;76.40
19039;DHT22;9652;49.014;12.052;2024-02-26T08:06:47;7.30;76.60
19039;DHT22;9652;49.014;12.052;2024-02-26T08:09:14;7.50;76.60
19039;DHT22;9652;49.014;12.052;2024-02-26T08:11:41;7.70;76.80
19039;DHT22;9652;49.014;12.052;2024-02-26T08:14:08;7.90;77.00
19039;DHT22;9652;49.014;12.052;2024-02-26T08:16:36;8.10;77.10
19039;DHT22;9652;49.014;12.052;2024-02-26T08:19:04;8.30;77.10
19039;DHT22;9652;49.014;12.052;2024-02-26T08:21:31;8.50;77.10
19039;DHT22;9652;49.014;12.052;2024-02-26T08:23:59;8.80;77.00
19039;DHT22;9652;49.014;12.052;2024-02-26T08:26:29;9.00;77.30
19039;DHT22;9652;49.014;12.052;2024-02-26T08:28:56;9.30;76.00
19039;DHT22;9652;49.014;12.052;2024-02-26T08:31:23;9.40;75.10
19039;DHT22;9652;49.014;12.052;2024-02-26T08:33:51;9.60;74.60
19039;DHT22;9652;49.014;12.052;2024-02-26T08:36:18;9.70;74.20
19039;DHT22;9652;49.014;12.052;2024-02-26T08:38:45;9.90;73.80
19039;DHT22;9652;49.014;12.052;2024-02-26T08:41:14;10.00;73.40
19039;DHT22;9652;49.014;12.052;2024-02-26T08:43:41;10.10;74.00
19039;DHT22;9652;49.014;12.052;2024-02-26T08:46:08;10.20;73.10
19039;DHT22;9652;49.014;12.052;2024-02-26T08:48:36;10.20;72.70
19039;DHT22;9652;49.014;12.052;2024-02-26T08:51:06;10.30;72.30
19039;DHT22;9652;49.014;12.052;2024-02-26T08:53:33;10.40;72.00
19039;DHT22;9652;49.014;12.052;2024-02-26T08:56:01;10.40;72.00
19039;DHT22;9652;49.014;12.052;2024-02-26T08:58:30;10.50;72.10
19039;DHT22;9652;49.014;12.052;2024-02-26T09:00:58;10.60;71.90
19039;DHT22;9652;49.014;12.052;2024-02-26T09:03:25;10.70;71.90
19039;DHT22;9652;49.014;12.052;2024-02-26T09:05:52;10.70;71.60
19039;DHT22;9652;49.014;12.052;2024-02-26T09:08:19;10.80;71.40
19039;DHT22;9652;49.014;12.052;2024-02-26T09:10:47;10.80;71.10
19039;DHT22;9652;49.014;12.052;2024-02-26T09:13:14;10.90;70.90
19039;DHT22;9652;49.014;12.052;2024-02-26T09:15:43;11.00;70.80
19039;DHT22;9652;49.014;12.052;2024-02-26T09:18:10;11.00;70.50
19039;DHT22;9652;49.014;12.052;2024-02-26T09:20:37;11.10;70.70
19039;DHT22;9652;49.014;12.052;2024-02-26T09:23:04;11.20;70.70
19039;DHT22;9652;49.014;12.052;2024-02-26T09:25:31;11.30;70.90
19039;DHT22;9652;49.014;12.052;2024-02-26T09:27:59;11.40;71.00
19039;DHT22;9652;49.014;12.052;2024-02-26T09:30:27;11.60;70.70
19039;DHT22;9652;49.014;12.052;2024-02-26T09:32:56;11.70;70.20
19039;DHT22;9652;49.014;12.052;2024-02-26T09:35:23;11.70;69.60
19039;DHT22;9652;49.014;12.052;2024-02-26T09:37:51;11.80;69.40
19039;DHT22;9652;49.014;12.052;2024-02-26T09:40:19;11.90;69.00
19039;DHT22;9652;49.014;12.052;2024-02-26T09:42:47;11.90;68.80
19039;DHT22;9652;49.014;12.052;2024-02-26T09:45:22;12.00;68.90
19039;DHT22;9652;49.014;12.052;2024-02-26T09:47:56;12.00;68.70
19039;DHT22;9652;49.014;12.052;2024-02-26T09:50:24;12.10;68.70
19039;DHT22;9652;49.014;12.052;2024-02-26T09:52:51;12.20;68.90
19039;DHT22;9652;49.014;12.052;2024-02-26T09:55:20;12.30;69.00
19039;DHT22;9652;49.014;12.052;2024-02-26T09:57:48;12.30;68.80
19039;DHT22;9652;49.014;12.052;2024-02-26T10:00:19;12.40;68.40
19039;DHT22;9652;49.014;12.052;2024-02-26T10:02:48;12.50;68.50
19039;DHT22;9652;49.014;12.052;2024-02-26T10:05:18;12.60;68.20
19039;DHT22;9652;49.014;12.052;2024-02-26T10:07:45;12.70;67.80
19039;DHT22;9652;49.014;12.052;2024-02-26T10:10:13;12.70;68.00
19039;DHT22;9652;49.014;12.052;2024-02-26T10:12:41;12.80;67.70
19039;DHT22;9652;49.014;12.052;2024-02-26T10:15:09;12.90;68.00
19039;DHT22;9652;49.014;12.052;2024-02-26T10:17:36;13.00;67.70
19039;DHT22;9652;49.014;12.052;2024-02-26T10:20:12;13.10;67.50
19039;DHT22;9652;49.014;12.052;2024-02-26T10:22:42;13.20;66.70
19039;DHT22;9652;49.014;12.052;2024-02-26T10:25:10;13.30;67.20
19039;DHT22;9652;49.014;12.052;2024-02-26T10:27:37;13.40;67.10
19039;DHT22;9652;49.014;12.052;2024-02-26T10:30:06;13.50;67.20
19039;DHT22;9652;49.014;12.052;2024-02-26T10:32:44;13.60;66.90
19039;DHT22;9652;49.014;12.052;2024-02-26T10:35:11;13.70;66.80
19039;DHT22;9652;49.014;12.052;2024-02-26T10:37:41;13.80;66.80
19039;DHT22;9652;49.014;12.052;2024-02-26T10:40:10;13.90;66.50
19039;DHT22;9652;49.014;12.052;2024-02-26T10:42:37;14.00;66.30
19039;DHT22;9652;49.014;12.052;2024-02-26T10:45:05;14.10;66.00
19039;DHT22;9652;49.014;12.052;2024-02-26T10:47:34;14.20;65.90
19039;DHT22;9652;49.014;12.052;2024-02-26T10:50:04;14.30;65.60
19039;DHT22;9652;49.014;12.052;2024-02-26T10:52:34;14.40;65.10
19039;DHT22;9652;49.014;12.052;2024-02-26T10:55:05;14.40;65.00
19039;DHT22;9652;49.014;12.052;2024-02-26T10:57:35;14.50;64.70
19039;DHT22;9652;49.014;12.052;2024-02-26T11:00:06;14.60;64.50
19039;DHT22;9652;49.014;12.052;2024-02-26T11:02:38;14.70;64.50
19039;DHT22;9652;49.014;12.052;2024-02-26T11:05:08;14.80;65.50
19039;DHT22;9652;49.014;12.052;2024-02-26T11:07:35;14.80;64.10
19039;DHT22;9652;49.014;12.052;2024-02-26T11:10:06;14.90;63.70
19039;DHT22;9652;49.014;12.052;2024-02-26T11:12:36;15.00;63.10
19039;DHT22;9652;49.014;12.052;2024-02-26T11:15:06;15.00;63.00
19039;DHT22;9652;49.014;12.052;2024-02-26T11:17:35;15.00;62.80
19039;DHT22;9652;49.014;12.052;2024-02-26T11:20:04;15.10;62.70
19039;DHT22;9652;49.014;12.052;2024-02-26T11:22:36;15.20;62.90
19039;DHT22;9652;49.014;12.052;2024-02-26T11:25:05;15.30;62.90
19039;DHT22;9652;49.014;12.052;2024-02-26T11:27:38;15.40;62.50
19039;DHT22;9652;49.014;12.052;2024-02-26T11:30:10;15.40;62.10
19039;DHT22;9652;49.014;12.052;2024-02-26T11:32:38;15.50;62.40
19039;DHT22;9652;49.014;12.052;2024-02-26T11:35:06;15.70;62.10
19039;DHT22;9652;49.014;12.052;2024-02-26T11:37:36;15.70;61.50
19039;DHT22;9652;49.014;12.052;2024-02-26T11:40:05;15.80;61.20
19039;DHT22;9652;49.014;12.052;2024-02-26T11:42:43;15.80;61.10
19039;DHT22;9652;49.014;12.052;2024-02-26T11:48:23;15.80;59.60
19039;DHT22;9652;49.014;12.052;2024-02-26T11:50:52;15.80;59.80
19039;DHT22;9652;49.014;12.052;2024-02-26T11:53:24;15.80;59.80
19039;DHT22;9652;49.014;12.052;2024-02-26T11:56:23;15.80;59.80
19039;DHT22;9652;49.014;12.052;2024-02-26T11:59:00;15.80;58.50
19039;DHT22;9652;49.014;12.052;2024-02-26T12:01:42;15.80;58.80
19039;DHT22;9652;49.014;12.052;2024-02-26T12:04:16;15.80;58.80
19039;DHT22;9652;49.014;12.052;2024-02-26T12:06:47;15.80;59.50
19039;DHT22;9652;49.014;12.052;2024-02-26T12:09:34;15.80;59.50
19039;DHT22;9652;49.014;12.052;2024-02-26T12:12:05;15.80;58.50
19039;DHT22;9652;49.014;12.052;2024-02-26T12:14:34;15.80;59.10
19039;DHT22;9652;49.014;12.052;2024-02-26T12:17:04;15.80;59.10
19039;DHT22;9652;49.014;12.052;2024-02-26T12:19:33;15.80;58.90
19039;DHT22;9652;49.014;12.052;2024-02-26T12:22:02;15.80;58.80
19039;DHT22;9652;49.014;12.052;2024-02-26T12:24:30;15.80;58.90
19039;DHT22;9652;49.014;12.052;2024-02-26T12:26:57;15.80;58.90
19039;DHT22;9652;49.014;12.052;2024-02-26T12:29:26;15.80;58.80
19039;DHT22;9652;49.014;12.052;2024-02-26T12:31:53;15.80;58.50
19039;DHT22;9652;49.014;12.052;2024-02-26T12:34:20;15.80;58.60
19039;DHT22;9652;49.014;12.052;2024-02-26T12:36:48;15.80;58.60
19039;DHT22;9652;49.014;12.052;2024-02-26T12:39:15;15.80;58.50
19039;DHT22;9652;49.014;12.052;2024-02-26T12:41:42;15.90;58.40
19039;DHT22;9652;49.014;12.052;2024-02-26T12:44:15;15.90;58.50
19039;DHT22;9652;49.014;12.052;2024-02-26T12:46:43;15.90;58.30
19039;DHT22;9652;49.014;12.052;2024-02-26T12:49:15;16.00;58.10
19039;DHT22;9652;49.014;12.052;2024-02-26T12:51:44;16.00;58.30
19039;DHT22;9652;49.014;12.052;2024-02-26T12:54:11;16.00;58.10
19039;DHT22;9652;49.014;12.052;2024-02-26T12:56:39;16.10;58.10
19039;DHT22;9652;49.014;12.052;2024-02-26T12:59:07;16.20;58.30
19039;DHT22;9652;49.014;12.052;2024-02-26T13:01:35;16.20;58.10
19039;DHT22;9652;49.014;12.052;2024-02-26T13:04:04;16.30;57.90
19039;DHT22;9652;49.014;12.052;2024-02-26T13:06:32;16.40;57.60
19039;DHT22;9652;49.014;12.052;2024-02-26T13:09:00;16.40;57.40
19039;DHT22;9652;49.014;12.052;2024-02-26T13:11:28;16.50;57.10
19039;DHT22;9652;49.014;12.052;2024-02-26T13:13:56;16.50;57.00
19039;DHT22;9652;49.014;12.052;2024-02-26T13:16:24;16.50;57.00
19039;DHT22;9652;49.014;12.052;2024-02-26T13:18:52;16.50;56.60
19039;DHT22;9652;49.014;12.052;2024-02-26T13:21:20;16.50;56.30
19039;DHT22;9652;49.014;12.052;2024-02-26T13:23:48;16.50;56.10
19039;DHT22;9652;49.014;12.052;2024-02-26T13:26:22;16.50;56.00
19039;DHT22;9652;49.014;12.052;2024-02-26T13:28:59;16.50;55.60
19039;DHT22;9652;49.014;12.052;2024-02-26T13:31:27;16.60;55.20
19039;DHT22;9652;49.014;12.052;2024-02-26T13:33:54;16.60;55.90
19039;DHT22;9652;49.014;12.052;2024-02-26T13:36:23;16.60;55.60
19039;DHT22;9652;49.014;12.052;2024-02-26T13:38:51;16.60;55.20
19039;DHT22;9652;49.014;12.052;2024-02-26T13:41:20;16.60;55.30
19039;DHT22;9652;49.014;12.052;2024-02-26T13:43:47;16.60;54.90
19039;DHT22;9652;49.014;12.052;2024-02-26T13:46:15;16.60;54.80
19039;DHT22;9652;49.014;12.052;2024-02-26T13:48:42;16.50;54.40
19039;DHT22;9652;49.014;12.052;2024-02-26T13:51:10;16.50;54.40
19039;DHT22;9652;49.014;12.052;2024-02-26T13:53:39;16.40;54.10
19039;DHT22;9652;49.014;12.052;2024-02-26T13:56:06;16.30;53.70
19039;DHT22;9652;49.014;12.052;2024-02-26T13:58:34;16.30;53.70
19039;DHT22;9652;49.014;12.052;2024-02-26T14:01:01;16.30;53.60
19039;DHT22;9652;49.014;12.052;2024-02-26T14:03:29;16.20;53.60
19039;DHT22;9652;49.014;12.052;2024-02-26T14:05:56;16.20;53.60
19039;DHT22;9652;49.014;12.052;2024-02-26T14:08:24;16.20;53.70
19039;DHT22;9652;49.014;12.052;2024-02-26T14:10:52;16.20;53.60
19039;DHT22;9652;49.014;12.052;2024-02-26T14:13:19;16.10;53.20
19039;DHT22;9652;49.014;12.052;2024-02-26T14:15:46;16.30;53.70
19039;DHT22;9652;49.014;12.052;2024-02-26T14:18:13;16.30;53.60
19039;DHT22;9652;49.014;12.052;2024-02-26T14:20:40;16.30;53.70
19039;DHT22;9652;49.014;12.052;2024-02-26T14:23:08;16.40;53.60
19039;DHT22;9652;49.014;12.052;2024-02-26T14:25:35;16.40;54.00
19039;DHT22;9652;49.014;12.052;2024-02-26T14:28:04;16.40;54.10
19039;DHT22;9652;49.014;12.052;2024-02-26T14:30:31;16.40;54.00
19039;DHT22;9652;49.014;12.052;2024-02-26T14:32:59;16.40;54.10
19039;DHT22;9652;49.014;12.052;2024-02-26T14:35:26;16.50;54.30
19039;DHT22;9652;49.014;12.052;2024-02-26T14:37:53;16.40;54.30
19039;DHT22;9652;49.014;12.052;2024-02-26T14:40:20;16.40;54.40
19039;DHT22;9652;49.014;12.052;2024-02-26T14:42:47;16.40;54.60
19039;DHT22;9652;49.014;12.052;2024-02-26T14:45:16;16.40;54.60
19039;DHT22;9652;49.014;12.052;2024-02-26T14:47:43;16.40;54.80
19039;DHT22;9652;49.014;12.052;2024-02-26T14:50:11;16.30;54.80
19039;DHT22;9652;49.014;12.052;2024-02-26T14:52:38;16.30;55.00
19039;DHT22;9652;49.014;12.052;2024-02-26T14:55:05;16.30;55.00
19039;DHT22;9652;49.014;12.052;2024-02-26T14:57:33;16.20;54.90
19039;DHT22;9652;49.014;12.052;2024-02-26T15:00:00;16.20;54.70
19039;DHT22;9652;49.014;12.052;2024-02-26T15:02:30;16.10;54.60
19039;DHT22;9652;49.014;12.052;2024-02-26T15:04:57;16.00;54.50
19039;DHT22;9652;49.014;12.052;2024-02-26T15:07:25;16.00;54.60
19039;DHT22;9652;49.014;12.052;2024-02-26T15:09:52;15.80;54.50
19039;DHT22;9652;49.014;12.052;2024-02-26T15:12:23;15.80;54.70
19039;DHT22;9652;49.014;12.052;2024-02-26T15:14:50;15.60;54.60
19039;DHT22;9652;49.014;12.052;2024-02-26T15:17:17;15.70;54.80
19039;DHT22;9652;49.014;12.052;2024-02-26T15:19:47;15.60;54.80
19039;DHT22;9652;49.014;12.052;2024-02-26T15:22:14;15.50;54.90
19039;DHT22;9652;49.014;12.052;2024-02-26T15:24:44;15.40;55.10
19039;DHT22;9652;49.014;12.052;2024-02-26T15:27:12;15.40;55.00
19039;DHT22;9652;49.014;12.052;2024-02-26T15:29:40;15.40;55.20
19039;DHT22;9652;49.014;12.052;2024-02-26T15:32:07;15.30;55.30
19039;DHT22;9652;49.014;12.052;2024-02-26T15:34:34;15.20;55.20
19039;DHT22;9652;49.014;12.052;2024-02-26T15:37:03;15.20;55.20
19039;DHT22;9652;49.014;12.052;2024-02-26T15:39:30;15.20;55.30
19039;DHT22;9652;49.014;12.052;2024-02-26T15:41:58;15.10;55.30
19039;DHT22;9652;49.014;12.052;2024-02-26T15:44:28;15.00;55.30
19039;DHT22;9652;49.014;12.052;2024-02-26T15:46:55;15.00;55.40
19039;DHT22;9652;49.014;12.052;2024-02-26T15:49:22;14.90;56.10